createdAt,value
2017-07-20T00:00:04.220Z,0
2017-07-20T00:01:03.904Z,0
2017-07-20T00:02:03.883Z,0
2017-07-20T00:03:03.871Z,0
2017-07-20T00:04:03.850Z,0
2017-07-20T00:05:03.832Z,0
2017-07-20T00:06:03.810Z,0
2017-07-20T00:07:03.789Z,0
2017-07-20T00:08:04.070Z,0
2017-07-20T00:09:03.756Z,0
2017-07-20T00:10:03.743Z,0
2017-07-20T00:11:04.028Z,0
2017-07-20T00:12:03.706Z,0
2017-07-20T00:13:03.688Z,0
2017-07-20T00:14:03.373Z,0
2017-07-20T00:15:03.947Z,0
2017-07-20T00:16:03.934Z,0
2017-07-20T00:17:03.320Z,0
2017-07-20T00:18:03.599Z,0
2017-07-20T00:19:03.578Z,0
2017-07-20T00:20:03.856Z,0
2017-07-20T00:21:03.844Z,0
2017-07-20T00:22:03.826Z,0
2017-07-20T00:23:03.213Z,0
2017-07-20T00:24:03.786Z,0
2017-07-20T00:25:03.773Z,0
2017-07-20T00:26:03.773Z,0
2017-07-20T00:27:03.746Z,0
2017-07-20T00:28:03.420Z,0
2017-07-20T00:29:03.402Z,0
2017-07-20T00:30:03.391Z,0
2017-07-20T00:31:03.368Z,0
2017-07-20T00:32:03.654Z,0
2017-07-20T00:33:03.641Z,0
2017-07-20T00:34:03.315Z,0
2017-07-20T00:35:03.604Z,0
2017-07-20T00:36:03.595Z,0
2017-07-20T00:37:03.264Z,0
2017-07-20T00:38:03.242Z,0
2017-07-20T00:39:03.525Z,0
2017-07-20T00:40:03.526Z,0
2017-07-20T00:41:03.188Z,0
2017-07-20T00:42:03.192Z,0
2017-07-20T00:43:03.461Z,0
2017-07-20T00:44:03.134Z,0
2017-07-20T00:45:03.422Z,0
2017-07-20T00:46:03.110Z,0
2017-07-20T00:47:03.093Z,0
2017-07-20T00:48:03.361Z,0
2017-07-20T00:49:03.061Z,0
2017-07-20T00:50:03.033Z,0
2017-07-20T00:51:03.311Z,0
2017-07-20T00:52:03.297Z,0
2017-07-20T00:53:02.683Z,0
2017-07-20T00:54:02.665Z,0
2017-07-20T00:55:03.239Z,0
2017-07-20T00:56:03.225Z,0
2017-07-20T00:57:03.205Z,0
2017-07-20T00:58:03.188Z,0
2017-07-20T00:59:03.174Z,0
2017-07-20T01:00:03.156Z,0
2017-07-20T01:01:03.139Z,0
2017-07-20T01:02:03.119Z,0
2017-07-20T01:03:03.102Z,0
2017-07-20T01:04:03.100Z,0
2017-07-20T01:05:03.066Z,0
2017-07-20T01:06:03.045Z,0
2017-07-20T01:07:03.030Z,0
2017-07-20T01:08:02.718Z,0
2017-07-20T01:09:02.698Z,0
2017-07-20T01:10:02.977Z,0
2017-07-20T01:11:02.963Z,0
2017-07-20T01:12:02.651Z,0
2017-07-20T01:13:02.926Z,0
2017-07-20T01:14:02.908Z,0
2017-07-20T01:15:02.891Z,0
2017-07-20T01:16:02.879Z,0
2017-07-20T01:17:02.567Z,0
2017-07-20T01:18:02.837Z,0
2017-07-20T01:19:02.823Z,0
2017-07-20T01:20:02.802Z,0
2017-07-20T01:21:02.785Z,0
2017-07-20T01:22:02.770Z,0
2017-07-20T01:23:02.760Z,0
2017-07-20T01:24:02.435Z,0
2017-07-20T01:25:02.419Z,0
2017-07-20T01:26:02.699Z,0
2017-07-20T01:27:02.677Z,0
2017-07-20T01:28:02.373Z,0
2017-07-20T01:29:02.651Z,0
2017-07-20T01:30:02.329Z,0
2017-07-20T01:31:02.311Z,0
2017-07-20T01:32:02.587Z,0
2017-07-20T01:33:02.567Z,0
2017-07-20T01:34:02.270Z,0
2017-07-20T01:35:02.538Z,0
2017-07-20T01:36:02.522Z,0
2017-07-20T01:37:02.497Z,0
2017-07-20T01:38:02.489Z,0
2017-07-20T01:39:02.468Z,0
2017-07-20T01:40:02.468Z,0
2017-07-20T01:41:02.432Z,0
2017-07-20T01:42:02.414Z,0
2017-07-20T01:43:02.407Z,0
2017-07-20T01:44:02.375Z,0
2017-07-20T01:45:02.359Z,0
2017-07-20T01:46:02.340Z,0
2017-07-20T01:47:02.322Z,0
2017-07-20T01:48:02.306Z,0
2017-07-20T01:49:02.290Z,0
2017-07-20T01:50:02.263Z,0
2017-07-20T01:51:02.250Z,0
2017-07-20T01:52:02.235Z,0
2017-07-20T01:53:01.622Z,0
2017-07-20T01:54:02.208Z,0
2017-07-20T01:55:02.182Z,0
2017-07-20T01:56:02.171Z,0
2017-07-20T01:57:02.141Z,0
2017-07-20T01:58:01.828Z,0
2017-07-20T01:59:02.109Z,0
2017-07-20T02:00:02.096Z,0
2017-07-20T02:01:01.779Z,0
2017-07-20T02:02:02.060Z,0
2017-07-20T02:03:02.040Z,0
2017-07-20T02:04:02.051Z,0
2017-07-20T02:05:02.002Z,0
2017-07-20T02:06:01.988Z,0
2017-07-20T02:07:01.975Z,0
2017-07-20T02:08:01.653Z,0
2017-07-20T02:09:01.635Z,0
2017-07-20T02:10:01.911Z,0
2017-07-20T02:11:01.606Z,0
2017-07-20T02:12:01.883Z,0
2017-07-20T02:13:01.864Z,0
2017-07-20T02:14:01.547Z,0
2017-07-20T02:15:01.832Z,0
2017-07-20T02:16:01.526Z,0
2017-07-20T02:17:01.194Z,0
2017-07-20T02:18:01.477Z,0
2017-07-20T02:19:01.460Z,0
2017-07-20T02:20:01.735Z,0
2017-07-20T02:21:01.711Z,0
2017-07-20T02:22:01.401Z,0
2017-07-20T02:23:01.088Z,0
2017-07-20T02:24:01.665Z,0
2017-07-20T02:25:01.349Z,0
2017-07-20T02:26:01.626Z,0
2017-07-20T02:27:01.015Z,0
2017-07-20T02:28:00.994Z,0
2017-07-20T02:29:01.576Z,0
2017-07-20T02:30:00.961Z,0
2017-07-20T02:31:01.242Z,0
2017-07-20T02:32:01.222Z,0
2017-07-20T02:33:01.508Z,0
2017-07-20T02:34:01.483Z,0
2017-07-20T02:35:01.463Z,0
2017-07-20T02:36:01.152Z,0
2017-07-20T02:37:01.429Z,0
2017-07-20T02:38:01.115Z,0
2017-07-20T02:39:01.103Z,0
2017-07-20T02:40:01.383Z,0
2017-07-20T02:41:01.073Z,0
2017-07-20T02:42:01.045Z,0
2017-07-20T02:43:01.323Z,0
2017-07-20T02:44:01.005Z,0
2017-07-20T02:45:01.282Z,0
2017-07-20T02:46:00.971Z,0
2017-07-20T02:47:01.253Z,0
2017-07-20T02:48:00.936Z,0
2017-07-20T02:49:00.915Z,0
2017-07-20T02:50:00.898Z,0
2017-07-20T02:51:01.179Z,0
2017-07-20T02:52:01.162Z,0
2017-07-20T02:53:00.852Z,0
2017-07-20T02:54:01.124Z,0
2017-07-20T02:55:01.109Z,0
2017-07-20T02:56:01.093Z,0
2017-07-20T02:57:01.072Z,0
2017-07-20T02:58:01.051Z,0
2017-07-20T02:59:01.046Z,0
2017-07-20T03:00:00.719Z,0
2017-07-20T03:01:01.001Z,0
2017-07-20T03:02:00.975Z,0
2017-07-20T03:03:00.959Z,0
2017-07-20T03:04:00.973Z,4
2017-07-20T03:05:00.924Z,4
2017-07-20T03:06:00.913Z,4
2017-07-20T03:07:00.887Z,0
2017-07-20T03:08:00.872Z,4
2017-07-20T03:09:00.867Z,4
2017-07-20T03:10:00.857Z,4
2017-07-20T03:11:00.820Z,4
2017-07-20T03:12:00.802Z,8
2017-07-20T03:13:00.782Z,8
2017-07-20T03:14:00.764Z,8
2017-07-20T03:15:00.753Z,12
2017-07-20T03:16:00.435Z,12
2017-07-20T03:17:00.711Z,16
2017-07-20T03:18:00.434Z,20
2017-07-20T03:19:00.681Z,24
2017-07-20T03:20:00.360Z,28
2017-07-20T03:21:00.645Z,32
2017-07-20T03:22:00.624Z,32
2017-07-20T03:23:00.611Z,36
2017-07-20T03:24:00.602Z,36
2017-07-20T03:25:00.277Z,40
2017-07-20T03:26:00.549Z,40
2017-07-20T03:27:00.531Z,36
2017-07-20T03:28:00.517Z,36
2017-07-20T03:29:00.510Z,36
2017-07-20T03:30:00.489Z,36
2017-07-20T03:31:00.469Z,36
2017-07-20T03:32:00.443Z,40
2017-07-20T03:33:00.427Z,44
2017-07-20T03:34:00.408Z,48
2017-07-20T03:35:00.095Z,52
2017-07-20T03:35:59.777Z,64
2017-07-20T03:37:00.056Z,72
2017-07-20T03:38:00.346Z,88
2017-07-20T03:39:00.023Z,104
2017-07-20T03:40:00.305Z,116
2017-07-20T03:41:00.282Z,128
2017-07-20T03:42:00.275Z,136
2017-07-20T03:42:59.955Z,144
2017-07-20T03:44:00.233Z,152
2017-07-20T03:45:00.210Z,148
2017-07-20T03:46:00.193Z,148
2017-07-20T03:47:00.180Z,152
2017-07-20T03:47:59.858Z,160
2017-07-20T03:49:00.141Z,176
2017-07-20T03:50:00.122Z,196
2017-07-20T03:51:00.103Z,212
2017-07-20T03:52:00.085Z,240
2017-07-20T03:52:59.473Z,268
2017-07-20T03:54:00.048Z,304
2017-07-20T03:55:00.032Z,348
2017-07-20T03:56:00.021Z,396
2017-07-20T03:57:00.001Z,440
2017-07-20T03:57:59.984Z,480
2017-07-20T03:58:59.367Z,496
2017-07-20T03:59:59.941Z,476
2017-07-20T04:00:59.932Z,440
2017-07-20T04:01:59.915Z,412
2017-07-20T04:02:59.591Z,396
2017-07-20T04:03:59.883Z,416
2017-07-20T04:04:59.581Z,444
2017-07-20T04:05:59.538Z,464
2017-07-20T04:06:59.520Z,460
2017-07-20T04:07:59.211Z,448
2017-07-20T04:08:59.487Z,424
2017-07-20T04:10:00.088Z,408
2017-07-20T04:10:59.925Z,408
2017-07-20T04:11:59.438Z,428
2017-07-20T04:12:59.413Z,468
2017-07-20T04:13:59.408Z,504
2017-07-20T04:14:59.685Z,496
2017-07-20T04:15:59.653Z,444
2017-07-20T04:16:59.637Z,352
2017-07-20T04:17:59.620Z,268
2017-07-20T04:18:59.605Z,208
2017-07-20T04:19:59.598Z,168
2017-07-20T04:20:59.572Z,152
2017-07-20T04:21:59.552Z,144
2017-07-20T04:22:59.554Z,116
2017-07-20T04:23:59.215Z,120
2017-07-20T04:24:59.201Z,148
2017-07-20T04:25:59.179Z,176
2017-07-20T04:26:59.161Z,216
2017-07-20T04:27:58.869Z,304
2017-07-20T04:28:59.128Z,364
2017-07-20T04:29:58.814Z,376
2017-07-20T04:30:58.792Z,356
2017-07-20T04:31:59.370Z,332
2017-07-20T04:32:58.766Z,320
2017-07-20T04:33:59.092Z,332
2017-07-20T04:34:59.017Z,368
2017-07-20T04:35:59.002Z,408
2017-07-20T04:36:58.990Z,468
2017-07-20T04:37:58.972Z,484
2017-07-20T04:38:59.246Z,500
2017-07-20T04:39:59.236Z,456
2017-07-20T04:40:59.209Z,388
2017-07-20T04:41:58.890Z,288
2017-07-20T04:42:59.174Z,276
2017-07-20T04:43:58.879Z,260
2017-07-20T04:44:59.139Z,188
2017-07-20T04:45:58.832Z,120
2017-07-20T04:46:58.808Z,100
2017-07-20T04:47:59.084Z,80
2017-07-20T04:48:59.066Z,64
2017-07-20T04:49:59.045Z,72
2017-07-20T04:50:59.029Z,112
2017-07-20T04:51:59.011Z,176
2017-07-20T04:52:58.695Z,220
2017-07-20T04:53:58.985Z,204
2017-07-20T04:54:58.962Z,208
2017-07-20T04:55:58.936Z,224
2017-07-20T04:56:58.929Z,308
2017-07-20T04:57:58.899Z,380
2017-07-20T04:58:58.886Z,424
2017-07-20T04:59:58.871Z,456
2017-07-20T05:01:00.142Z,496
2017-07-20T05:01:59.660Z,504
2017-07-20T05:02:59.143Z,512
2017-07-20T05:03:59.261Z,524
2017-07-20T05:04:59.874Z,528
2017-07-20T05:05:58.769Z,548
2017-07-20T05:06:58.733Z,576
2017-07-20T05:07:58.719Z,604
2017-07-20T05:08:58.703Z,624
2017-07-20T05:09:58.680Z,636
2017-07-20T05:10:58.663Z,636
2017-07-20T05:11:58.345Z,632
2017-07-20T05:12:58.328Z,612
2017-07-20T05:13:58.605Z,572
2017-07-20T05:14:58.590Z,532
2017-07-20T05:15:58.572Z,512
2017-07-20T05:16:58.546Z,528
2017-07-20T05:17:58.530Z,576
2017-07-20T05:18:58.512Z,628
2017-07-20T05:19:58.498Z,656
2017-07-20T05:20:58.470Z,668
2017-07-20T05:21:58.183Z,680
2017-07-20T05:22:58.438Z,692
2017-07-20T05:23:58.419Z,708
2017-07-20T05:24:58.398Z,720
2017-07-20T05:25:58.384Z,744
2017-07-20T05:26:58.362Z,760
2017-07-20T05:27:58.341Z,768
2017-07-20T05:28:58.327Z,776
2017-07-20T05:29:58.007Z,812
2017-07-20T05:30:58.073Z,876
2017-07-20T05:31:58.279Z,948
2017-07-20T05:32:58.338Z,1016
2017-07-20T05:33:58.237Z,1072
2017-07-20T05:34:58.214Z,1124
2017-07-20T05:35:58.196Z,1184
2017-07-20T05:36:58.179Z,1260
2017-07-20T05:37:58.156Z,1348
2017-07-20T05:38:58.157Z,1428
2017-07-20T05:39:58.120Z,1496
2017-07-20T05:40:58.100Z,1576
2017-07-20T05:41:58.082Z,1664
2017-07-20T05:42:58.086Z,1792
2017-07-20T05:43:57.742Z,1984
2017-07-20T05:44:58.036Z,2244
2017-07-20T05:45:58.016Z,2516
2017-07-20T05:46:57.995Z,2804
2017-07-20T05:47:57.972Z,3100
2017-07-20T05:48:57.951Z,3396
2017-07-20T05:49:57.935Z,3640
2017-07-20T05:50:57.908Z,3856
2017-07-20T05:51:57.602Z,4128
2017-07-20T05:52:57.882Z,4524
2017-07-20T05:53:57.863Z,5056
2017-07-20T05:54:57.836Z,5712
2017-07-20T05:55:57.820Z,6408
2017-07-20T05:56:57.807Z,7208
2017-07-20T05:57:57.789Z,8088
2017-07-20T05:58:57.765Z,8948
2017-07-20T05:59:57.752Z,9696
2017-07-20T06:00:57.434Z,10296
2017-07-20T06:01:57.722Z,10772
2017-07-20T06:02:57.694Z,11120
2017-07-20T06:03:57.376Z,11336
2017-07-20T06:04:57.662Z,11388
2017-07-20T06:05:57.642Z,11532
2017-07-20T06:06:57.624Z,11652
2017-07-20T06:07:57.599Z,11464
2017-07-20T06:08:57.584Z,11068
2017-07-20T06:09:57.566Z,10616
2017-07-20T06:10:57.311Z,10208
2017-07-20T06:11:58.340Z,9916
2017-07-20T06:12:58.456Z,9796
2017-07-20T06:13:56.938Z,9672
2017-07-20T06:14:57.974Z,9480
2017-07-20T06:15:57.548Z,9264
2017-07-20T06:16:57.678Z,9112
2017-07-20T06:17:58.174Z,9152
2017-07-20T06:18:57.416Z,9468
2017-07-20T06:19:57.400Z,10088
2017-07-20T06:20:57.374Z,10808
2017-07-20T06:21:57.664Z,11592
2017-07-20T06:22:57.345Z,12580
2017-07-20T06:23:57.323Z,13736
2017-07-20T06:24:57.312Z,14984
2017-07-20T06:25:56.990Z,16452
2017-07-20T06:26:57.275Z,18336
2017-07-20T06:27:56.961Z,20160
2017-07-20T06:28:57.240Z,21728
2017-07-20T06:29:56.931Z,23744
2017-07-20T06:30:56.911Z,25632
2017-07-20T06:31:57.188Z,26496
2017-07-20T06:32:57.194Z,26336
2017-07-20T06:33:57.226Z,25056
2017-07-20T06:34:57.154Z,25568
2017-07-20T06:35:57.216Z,23136
2017-07-20T06:36:57.106Z,20800
2017-07-20T06:37:56.795Z,19136
2017-07-20T06:38:56.780Z,17856
2017-07-20T06:39:57.060Z,17312
2017-07-20T06:40:57.049Z,17472
2017-07-20T06:41:57.036Z,17568
2017-07-20T06:42:57.018Z,17376
2017-07-20T06:43:56.994Z,17312
2017-07-20T06:44:56.995Z,17632
2017-07-20T06:45:56.965Z,18400
2017-07-20T06:46:56.955Z,18592
2017-07-20T06:47:56.655Z,18080
2017-07-20T06:48:56.923Z,18048
2017-07-20T06:49:56.950Z,18688
2017-07-20T06:50:56.892Z,19392
2017-07-20T06:51:56.885Z,20384
2017-07-20T06:52:56.859Z,21856
2017-07-20T06:53:56.851Z,22816
2017-07-20T06:54:56.836Z,24512
2017-07-20T06:55:56.816Z,24608
2017-07-20T06:56:56.814Z,24704
2017-07-20T06:57:57.083Z,25760
2017-07-20T06:58:56.773Z,26656
2017-07-20T06:59:56.757Z,29856
2017-07-20T07:00:56.741Z,39136
2017-07-20T07:01:56.727Z,34688
2017-07-20T07:02:56.722Z,48640
2017-07-20T07:03:56.703Z,34336
2017-07-20T07:04:56.691Z,42464
2017-07-20T07:05:56.378Z,38656
2017-07-20T07:06:56.070Z,39360
2017-07-20T07:07:56.649Z,33536
2017-07-20T07:08:56.339Z,47200
2017-07-20T07:09:56.621Z,46848
2017-07-20T07:10:56.625Z,44608
2017-07-20T07:11:56.598Z,29504
2017-07-20T07:12:56.588Z,23872
2017-07-20T07:13:55.971Z,20288
2017-07-20T07:14:56.259Z,20992
2017-07-20T07:15:56.542Z,21536
2017-07-20T07:16:56.533Z,20608
2017-07-20T07:17:56.218Z,19520
2017-07-20T07:18:56.513Z,18688
2017-07-20T07:19:56.200Z,17856
2017-07-20T07:20:56.183Z,16716
2017-07-20T07:21:56.169Z,15688
2017-07-20T07:22:56.153Z,14776
2017-07-20T07:23:56.553Z,14284
2017-07-20T07:24:56.129Z,14124
2017-07-20T07:25:56.410Z,14248
2017-07-20T07:26:56.103Z,14320
2017-07-20T07:27:56.090Z,14408
2017-07-20T07:28:55.779Z,14404
2017-07-20T07:29:56.056Z,14416
2017-07-20T07:30:56.042Z,14284
2017-07-20T07:31:56.333Z,13976
2017-07-20T07:32:56.027Z,13576
2017-07-20T07:33:56.010Z,13076
2017-07-20T07:34:55.994Z,12600
2017-07-20T07:35:55.976Z,12272
2017-07-20T07:36:56.265Z,12224
2017-07-20T07:37:56.246Z,12384
2017-07-20T07:38:56.236Z,12604
2017-07-20T07:39:56.222Z,12808
2017-07-20T07:40:56.215Z,12984
2017-07-20T07:41:56.188Z,13108
2017-07-20T07:42:56.170Z,13200
2017-07-20T07:43:55.873Z,13116
2017-07-20T07:44:56.144Z,12852
2017-07-20T07:45:56.135Z,12452
2017-07-20T07:46:56.120Z,12168
2017-07-20T07:47:55.808Z,12160
2017-07-20T07:48:55.804Z,12476
2017-07-20T07:49:55.787Z,13056
2017-07-20T07:50:56.058Z,13828
2017-07-20T07:51:56.184Z,14756
2017-07-20T07:52:56.037Z,15880
2017-07-20T07:53:56.025Z,17192
2017-07-20T07:54:56.004Z,18848
2017-07-20T07:55:55.986Z,20224
2017-07-20T07:56:55.972Z,21504
2017-07-20T07:57:55.952Z,22240
2017-07-20T07:58:55.947Z,22400
2017-07-20T07:59:55.935Z,21824
2017-07-20T08:00:55.913Z,21088
2017-07-20T08:01:55.816Z,20480
2017-07-20T08:02:55.892Z,19872
2017-07-20T08:03:55.866Z,19232
2017-07-20T08:04:55.859Z,18592
2017-07-20T08:05:55.543Z,18144
2017-07-20T08:06:55.849Z,17728
2017-07-20T08:07:55.810Z,17472
2017-07-20T08:08:55.802Z,17252
2017-07-20T08:09:55.778Z,17568
2017-07-20T08:10:55.544Z,17856
2017-07-20T08:11:55.452Z,18208
2017-07-20T08:12:55.168Z,18560
2017-07-20T08:13:55.427Z,18848
2017-07-20T08:14:55.706Z,19232
2017-07-20T08:15:55.691Z,19680
2017-07-20T08:16:55.385Z,20224
2017-07-20T08:17:55.658Z,20768
2017-07-20T08:18:55.666Z,20928
2017-07-20T08:19:55.714Z,20896
2017-07-20T08:20:55.325Z,20416
2017-07-20T08:21:55.011Z,19744
2017-07-20T08:22:55.591Z,19488
2017-07-20T08:23:55.284Z,19904
2017-07-20T08:24:55.270Z,21152
2017-07-20T08:25:55.543Z,23136
2017-07-20T08:26:55.244Z,25408
2017-07-20T08:27:55.519Z,27488
2017-07-20T08:28:55.510Z,29248
2017-07-20T08:29:55.198Z,30688
2017-07-20T08:30:55.477Z,32096
2017-07-20T08:31:55.454Z,33472
2017-07-20T08:32:54.864Z,38496
2017-07-20T08:33:55.140Z,35200
2017-07-20T08:34:55.423Z,40736
2017-07-20T08:35:55.405Z,43104
2017-07-20T08:36:55.393Z,44928
2017-07-20T08:37:55.380Z,60672
2017-07-20T08:38:55.369Z,58208
2017-07-20T08:39:55.052Z,44224
2017-07-20T08:40:55.058Z,41568
2017-07-20T08:41:55.326Z,46912
2017-07-20T08:42:55.013Z,40000
2017-07-20T08:43:55.310Z,49344
2017-07-20T08:44:55.296Z,41408
2017-07-20T08:45:55.276Z,36096
2017-07-20T08:46:55.292Z,37920
2017-07-20T08:47:54.966Z,64768
2017-07-20T08:48:55.245Z,48320
2017-07-20T08:49:55.237Z,41504
2017-07-20T08:50:55.227Z,41376
2017-07-20T08:51:55.215Z,44288
2017-07-20T08:52:55.209Z,59904
2017-07-20T08:53:55.193Z,56480
2017-07-20T08:54:55.185Z,52832
2017-07-20T08:55:55.168Z,76768
2017-07-20T08:56:54.931Z,64640
2017-07-20T08:57:54.851Z,66816
2017-07-20T08:58:55.162Z,65600
2017-07-20T08:59:54.843Z,56448
2017-07-20T09:00:55.118Z,81408
2017-07-20T09:01:54.816Z,87296
2017-07-20T09:02:54.808Z,50336
2017-07-20T09:03:54.847Z,62656
2017-07-20T09:04:55.098Z,62976
2017-07-20T09:05:55.077Z,67040
2017-07-20T09:06:55.061Z,56672
2017-07-20T09:07:54.761Z,58176
2017-07-20T09:08:54.754Z,55104
2017-07-20T09:09:54.895Z,46496
2017-07-20T09:10:55.034Z,56192
2017-07-20T09:11:55.023Z,41696
2017-07-20T09:12:54.403Z,36224
2017-07-20T09:13:55.116Z,46016
2017-07-20T09:14:54.836Z,38176
2017-07-20T09:15:55.010Z,30976
2017-07-20T09:16:54.979Z,27168
2017-07-20T09:17:54.971Z,26144
2017-07-20T09:18:54.964Z,28832
2017-07-20T09:19:54.950Z,30304
2017-07-20T09:20:54.643Z,26336
2017-07-20T09:21:54.687Z,25728
2017-07-20T09:22:54.926Z,26144
2017-07-20T09:23:54.912Z,29152
2017-07-20T09:24:54.904Z,39136
2017-07-20T09:25:54.897Z,44128
2017-07-20T09:26:54.878Z,40000
2017-07-20T09:27:54.874Z,46048
2017-07-20T09:28:54.874Z,43168
2017-07-20T09:29:55.051Z,46176
2017-07-20T09:30:54.251Z,41504
2017-07-20T09:31:54.534Z,42208
2017-07-20T09:32:54.825Z,46272
2017-07-20T09:33:54.810Z,44352
2017-07-20T09:34:54.803Z,41824
2017-07-20T09:35:54.794Z,40800
2017-07-20T09:36:54.785Z,40960
2017-07-20T09:37:54.767Z,43712
2017-07-20T09:38:54.767Z,43008
2017-07-20T09:39:54.753Z,40288
2017-07-20T09:40:54.740Z,42176
2017-07-20T09:41:54.734Z,41920
2017-07-20T09:42:54.717Z,42560
2017-07-20T09:43:54.707Z,40160
2017-07-20T09:44:54.400Z,40384
2017-07-20T09:45:54.399Z,39584
2017-07-20T09:46:54.560Z,39424
2017-07-20T09:47:54.567Z,39328
2017-07-20T09:48:54.658Z,39360
2017-07-20T09:49:54.649Z,39584
2017-07-20T09:50:54.663Z,39616
2017-07-20T09:51:54.632Z,40000
2017-07-20T09:52:54.621Z,40160
2017-07-20T09:53:54.610Z,44352
2017-07-20T09:54:54.600Z,44800
2017-07-20T09:55:54.588Z,44448
2017-07-20T09:56:54.582Z,47104
2017-07-20T09:57:54.567Z,41984
2017-07-20T09:58:55.037Z,38464
2017-07-20T09:59:54.256Z,35392
2017-07-20T10:00:54.239Z,33472
2017-07-20T10:01:54.529Z,32288
2017-07-20T10:02:54.525Z,31488
2017-07-20T10:03:54.510Z,31040
2017-07-20T10:04:54.499Z,31008
2017-07-20T10:05:54.192Z,31456
2017-07-20T10:06:54.480Z,32096
2017-07-20T10:07:54.177Z,33120
2017-07-20T10:08:54.161Z,34240
2017-07-20T10:09:54.156Z,35008
2017-07-20T10:10:54.441Z,35328
2017-07-20T10:11:54.423Z,35776
2017-07-20T10:12:54.413Z,36352
2017-07-20T10:13:54.406Z,37920
2017-07-20T10:14:54.399Z,35968
2017-07-20T10:15:54.088Z,34848
2017-07-20T10:16:54.078Z,34432
2017-07-20T10:17:54.365Z,34112
2017-07-20T10:18:54.718Z,34336
2017-07-20T10:19:54.042Z,34944
2017-07-20T10:20:54.333Z,37056
2017-07-20T10:21:54.320Z,38560
2017-07-20T10:22:54.032Z,38144
2017-07-20T10:23:54.306Z,37504
2017-07-20T10:24:54.292Z,37888
2017-07-20T10:25:53.987Z,38144
2017-07-20T10:26:54.269Z,38176
2017-07-20T10:27:54.264Z,38624
2017-07-20T10:28:53.954Z,38656
2017-07-20T10:29:53.948Z,39872
2017-07-20T10:30:53.931Z,40320
2017-07-20T10:31:54.226Z,39680
2017-07-20T10:32:54.204Z,40064
2017-07-20T10:33:53.908Z,39680
2017-07-20T10:34:53.897Z,40416
2017-07-20T10:35:54.183Z,39712
2017-07-20T10:36:54.174Z,39200
2017-07-20T10:37:54.170Z,38464
2017-07-20T10:38:54.153Z,36224
2017-07-20T10:39:54.142Z,34464
2017-07-20T10:40:54.135Z,33216
2017-07-20T10:41:54.138Z,33888
2017-07-20T10:42:53.828Z,34688
2017-07-20T10:43:54.109Z,35104
2017-07-20T10:44:54.117Z,34624
2017-07-20T10:45:54.120Z,34240
2017-07-20T10:46:53.785Z,33792
2017-07-20T10:47:54.075Z,34112
2017-07-20T10:48:53.769Z,35200
2017-07-20T10:49:54.050Z,35808
2017-07-20T10:50:53.605Z,35840
2017-07-20T10:51:53.966Z,35456
2017-07-20T10:52:53.728Z,34816
2017-07-20T10:53:53.473Z,34112
2017-07-20T10:54:54.013Z,33984
2017-07-20T10:55:53.994Z,33920
2017-07-20T10:56:53.994Z,34432
2017-07-20T10:57:53.977Z,35488
2017-07-20T10:58:54.057Z,36992
2017-07-20T10:59:53.960Z,37568
2017-07-20T11:00:53.949Z,40448
2017-07-20T11:01:53.650Z,42048
2017-07-20T11:02:53.931Z,41184
2017-07-20T11:03:53.929Z,41184
2017-07-20T11:04:53.914Z,41376
2017-07-20T11:05:53.921Z,40352
2017-07-20T11:06:53.902Z,39616
2017-07-20T11:07:53.894Z,39936
2017-07-20T11:08:53.287Z,40160
2017-07-20T11:09:53.584Z,39552
2017-07-20T11:10:54.019Z,39424
2017-07-20T11:11:53.849Z,40960
2017-07-20T11:12:53.849Z,41824
2017-07-20T11:13:53.835Z,43584
2017-07-20T11:14:53.831Z,43712
2017-07-20T11:15:53.817Z,45536
2017-07-20T11:16:53.821Z,45568
2017-07-20T11:17:53.506Z,43840
2017-07-20T11:18:53.197Z,42080
2017-07-20T11:19:53.788Z,41312
2017-07-20T11:20:53.475Z,45152
2017-07-20T11:21:53.764Z,51872
2017-07-20T11:22:53.755Z,60032
2017-07-20T11:23:53.751Z,47776
2017-07-20T11:24:53.738Z,47328
2017-07-20T11:25:53.728Z,56672
2017-07-20T11:26:53.424Z,61984
2017-07-20T11:27:53.721Z,57984
2017-07-20T11:28:53.414Z,50432
2017-07-20T11:29:53.403Z,47328
2017-07-20T11:30:53.689Z,44544
2017-07-20T11:31:53.390Z,48000
2017-07-20T11:32:53.669Z,47520
2017-07-20T11:33:53.880Z,51168
2017-07-20T11:34:53.667Z,49856
2017-07-20T11:35:53.650Z,52800
2017-07-20T11:36:53.656Z,35104
2017-07-20T11:37:53.633Z,37312
2017-07-20T11:38:53.338Z,91200
2017-07-20T11:39:53.623Z,88000
2017-07-20T11:40:53.320Z,73280
2017-07-20T11:41:53.605Z,51360
2017-07-20T11:42:53.303Z,33760
2017-07-20T11:43:53.292Z,38048
2017-07-20T11:44:53.612Z,26336
2017-07-20T11:45:53.576Z,28448
2017-07-20T11:46:53.572Z,33408
2017-07-20T11:47:53.274Z,32000
2017-07-20T11:48:53.561Z,32096
2017-07-20T11:49:53.558Z,35680
2017-07-20T11:50:53.243Z,50816
2017-07-20T11:51:53.239Z,71456
2017-07-20T11:52:53.549Z,81440
2017-07-20T11:53:53.047Z,73664
2017-07-20T11:54:53.514Z,105280
2017-07-20T11:55:53.502Z,98944
2017-07-20T11:56:53.507Z,102880
2017-07-20T11:57:53.491Z,75680
2017-07-20T11:58:53.191Z,88064
2017-07-20T11:59:53.481Z,66848
2017-07-20T12:00:53.485Z,82816
2017-07-20T12:01:53.472Z,75648
2017-07-20T12:02:53.310Z,40448
2017-07-20T12:03:53.475Z,40192
2017-07-20T12:04:53.165Z,30784
2017-07-20T12:05:53.155Z,94752
2017-07-20T12:06:53.152Z,92256
2017-07-20T12:07:53.448Z,80000
2017-07-20T12:08:53.143Z,31488
2017-07-20T12:09:53.144Z,25824
2017-07-20T12:10:53.443Z,21184
2017-07-20T12:11:53.433Z,18880
2017-07-20T12:12:53.432Z,17920
2017-07-20T12:13:53.429Z,20576
2017-07-20T12:14:53.122Z,33088
2017-07-20T12:15:53.123Z,30464
2017-07-20T12:16:53.421Z,24800
2017-07-20T12:17:53.404Z,21888
2017-07-20T12:18:53.404Z,22528
2017-07-20T12:19:53.406Z,22976
2017-07-20T12:20:53.406Z,21504
2017-07-20T12:21:53.085Z,19296
2017-07-20T12:22:53.380Z,18400
2017-07-20T12:23:53.369Z,18944
2017-07-20T12:24:53.364Z,21248
2017-07-20T12:25:53.363Z,24800
2017-07-20T12:26:53.350Z,25440
2017-07-20T12:27:53.393Z,22912
2017-07-20T12:28:53.330Z,20416
2017-07-20T12:29:53.322Z,16428
2017-07-20T12:30:53.009Z,14148
2017-07-20T12:31:53.297Z,14900
2017-07-20T12:32:53.298Z,28864
2017-07-20T12:33:53.285Z,99776
2017-07-20T12:34:52.980Z,93696
2017-07-20T12:35:52.966Z,87264
2017-07-20T12:36:52.671Z,85216
2017-07-20T12:37:53.245Z,94144
2017-07-20T12:38:53.237Z,87456
2017-07-20T12:39:53.227Z,41504
2017-07-20T12:40:53.226Z,90848
2017-07-20T12:41:52.923Z,46720
2017-07-20T12:42:53.208Z,88512
2017-07-20T12:43:53.208Z,72320
2017-07-20T12:44:53.201Z,27968
2017-07-20T12:45:53.218Z,20384
2017-07-20T12:46:53.192Z,16176
2017-07-20T12:47:53.181Z,15124
2017-07-20T12:48:53.178Z,15140
2017-07-20T12:49:53.172Z,12816
2017-07-20T12:50:53.178Z,10908
2017-07-20T12:51:52.866Z,11532
2017-07-20T12:52:53.154Z,16600
2017-07-20T12:53:53.152Z,96704
2017-07-20T12:54:52.850Z,102528
2017-07-20T12:55:53.135Z,99968
2017-07-20T12:56:53.125Z,84896
2017-07-20T12:57:53.123Z,75872
2017-07-20T12:58:53.110Z,21152
2017-07-20T12:59:52.815Z,36096
2017-07-20T13:00:53.258Z,26912
2017-07-20T13:01:52.796Z,99744
2017-07-20T13:02:53.095Z,93888
2017-07-20T13:03:53.108Z,31488
2017-07-20T13:04:53.080Z,98048
2017-07-20T13:05:53.079Z,96032
2017-07-20T13:06:52.768Z,93376
2017-07-20T13:07:52.769Z,92832
2017-07-20T13:08:52.787Z,89664
2017-07-20T13:09:53.054Z,88160
2017-07-20T13:10:54.028Z,88064
2017-07-20T13:11:54.222Z,86272
2017-07-20T13:12:54.084Z,85824
2017-07-20T13:13:52.740Z,89184
2017-07-20T13:14:53.086Z,30848
2017-07-20T13:15:53.032Z,91552
2017-07-20T13:16:53.031Z,89856
2017-07-20T13:17:53.026Z,57632
2017-07-20T13:18:53.024Z,92576
2017-07-20T13:19:53.023Z,94496
2017-07-20T13:20:53.023Z,92064
2017-07-20T13:21:52.425Z,91424
2017-07-20T13:22:53.019Z,89472
2017-07-20T13:23:53.019Z,91776
2017-07-20T13:24:53.025Z,91744
2017-07-20T13:25:53.008Z,90272
2017-07-20T13:26:53.006Z,91136
2017-07-20T13:27:52.711Z,23680